createdAt,value
2018-12-14T00:00:40.023Z,102586.00
2018-12-14T00:03:07.605Z,102589.51
2018-12-14T00:05:35.163Z,102585.58
2018-12-14T00:08:02.880Z,102587.73
2018-12-14T00:10:30.494Z,102594.27
2018-12-14T00:12:58.084Z,102589.46
2018-12-14T00:15:25.816Z,102591.22
2018-12-14T00:17:53.361Z,102584.62
2018-12-14T00:20:20.986Z,102585.92
2018-12-14T00:22:48.641Z,102588.53
2018-12-14T00:25:16.205Z,102594.20
2018-12-14T00:27:43.743Z,102582.00
2018-12-14T00:30:11.329Z,102592.05
2018-12-14T00:32:39.060Z,102583.28
2018-12-14T00:35:06.625Z,102585.91
2018-12-14T00:37:34.185Z,102596.42
2018-12-14T00:40:01.796Z,102601.19
2018-12-14T00:42:29.437Z,102603.39
2018-12-14T00:44:57.062Z,102608.16
2018-12-14T00:47:24.647Z,102611.67
2018-12-14T00:49:52.300Z,102603.78
2018-12-14T00:52:19.872Z,102604.67
2018-12-14T00:54:47.416Z,102606.83
2018-12-14T00:57:15.051Z,102609.02
2018-12-14T00:59:42.634Z,102606.84
2018-12-14T01:02:15.814Z,102603.32
2018-12-14T01:04:43.381Z,102611.62
2018-12-14T01:07:10.966Z,102603.31
2018-12-14T01:09:38.564Z,102616.87
2018-12-14T01:12:06.187Z,102610.32
2018-12-14T01:14:33.772Z,102612.48
2018-12-14T01:17:01.377Z,102612.95
2018-12-14T01:19:28.964Z,102611.17
2018-12-14T01:21:56.539Z,102611.19
2018-12-14T01:24:24.188Z,102601.12
2018-12-14T01:26:51.784Z,102603.30
2018-12-14T01:29:19.394Z,102604.19
2018-12-14T01:31:46.954Z,102599.36
2018-12-14T01:34:14.612Z,102603.66
2018-12-14T01:36:42.201Z,102608.02
2018-12-14T01:39:09.824Z,102607.13
2018-12-14T01:41:37.481Z,102606.25
2018-12-14T01:44:05.020Z,102603.61
2018-12-14T01:46:32.587Z,102601.89
2018-12-14T01:49:00.212Z,102602.76
2018-12-14T01:51:27.847Z,102607.14
2018-12-14T01:53:55.446Z,102602.34
2018-12-14T01:56:23.038Z,102598.87
2018-12-14T01:58:50.634Z,102594.44
2018-12-14T02:01:18.278Z,102591.86
2018-12-14T02:03:45.982Z,102587.05
2018-12-14T02:06:13.596Z,102585.73
2018-12-14T02:08:41.194Z,102582.69
2018-12-14T02:11:08.816Z,102580.06
2018-12-14T02:13:37.308Z,102580.50
2018-12-14T02:16:04.909Z,102581.84
2018-12-14T02:18:32.533Z,102581.84
2018-12-14T02:21:00.104Z,102580.53
2018-12-14T02:23:27.710Z,102583.63
2018-12-14T02:25:55.372Z,102587.93
2018-12-14T02:28:23.148Z,102589.67
2018-12-14T02:30:50.702Z,102588.80
2018-12-14T02:33:18.293Z,102595.34
2018-12-14T02:35:45.887Z,102592.27
2018-12-14T02:38:13.497Z,102595.34
2018-12-14T02:40:41.145Z,102592.72
2018-12-14T02:43:08.711Z,102597.54
2018-12-14T02:45:36.344Z,102595.34
2018-12-14T02:48:03.968Z,102590.09
2018-12-14T02:50:31.540Z,102595.33
2018-12-14T02:52:59.153Z,102585.27
2018-12-14T02:55:26.730Z,102584.84
2018-12-14T02:57:54.326Z,102584.83
2018-12-14T03:00:21.916Z,102586.58
2018-12-14T03:02:49.643Z,102586.16
2018-12-14T03:05:17.270Z,102588.33
2018-12-14T03:07:44.891Z,102590.92
2018-12-14T03:10:12.471Z,102586.53
2018-12-14T03:12:40.074Z,102585.25
2018-12-14T03:15:07.680Z,102589.16
2018-12-14T03:17:35.501Z,102584.78
2018-12-14T03:20:03.187Z,102588.34
2018-12-14T03:22:31.060Z,102588.78
2018-12-14T03:24:58.681Z,102588.78
2018-12-14T03:27:26.370Z,102587.45
2018-12-14T03:29:53.983Z,102586.13
2018-12-14T03:32:21.560Z,102586.56
2018-12-14T03:34:49.167Z,102582.66
2018-12-14T03:37:16.795Z,102591.86
2018-12-14T03:39:44.354Z,102590.10
2018-12-14T03:42:11.927Z,102593.55
2018-12-14T03:44:39.658Z,102590.06
2018-12-14T03:47:07.219Z,102587.03
2018-12-14T03:49:34.826Z,102589.66
2018-12-14T03:52:02.429Z,102598.83
2018-12-14T03:54:30.092Z,102593.56
2018-12-14T03:56:57.704Z,102595.33
2018-12-14T03:59:25.306Z,102597.92
2018-12-14T04:01:52.936Z,102597.48
2018-12-14T04:04:20.485Z,102597.05
2018-12-14T04:06:48.187Z,102596.59
2018-12-14T04:09:15.776Z,102590.88
2018-12-14T04:11:43.343Z,102595.23
2018-12-14T04:14:10.954Z,102594.79
2018-12-14T04:16:38.675Z,102588.67
2018-12-14T04:19:06.283Z,102591.72
2018-12-14T04:21:33.823Z,102588.20
2018-12-14T04:24:01.437Z,102593.90
2018-12-14T04:26:29.017Z,102590.81
2018-12-14T04:28:56.610Z,102587.33
2018-12-14T04:31:24.223Z,102593.06
2018-12-14T04:33:51.835Z,102590.88
2018-12-14T04:36:19.428Z,102588.69
2018-12-14T04:38:47.126Z,102586.94
2018-12-14T04:41:14.717Z,102585.63
2018-12-14T04:43:42.264Z,102582.62
2018-12-14T04:46:09.977Z,102588.33
2018-12-14T04:48:37.552Z,102584.84
2018-12-14T04:51:05.122Z,102581.31
2018-12-14T04:53:32.682Z,102576.53
2018-12-14T04:56:00.286Z,102574.36
2018-12-14T04:58:27.940Z,102576.13
2018-12-14T05:00:55.576Z,102580.52
2018-12-14T05:03:23.220Z,102581.02
2018-12-14T05:05:50.829Z,102579.70
2018-12-14T05:08:18.415Z,102580.58
2018-12-14T05:10:46.030Z,102586.70
2018-12-14T05:13:13.752Z,102575.78
2018-12-14T05:15:41.326Z,102573.61
2018-12-14T05:18:08.906Z,102573.59
2018-12-14T05:20:36.508Z,102567.91
2018-12-14T05:23:04.118Z,102574.92
2018-12-14T05:25:31.800Z,102570.95
2018-12-14T05:27:59.415Z,102572.69
2018-12-14T05:30:27.050Z,102565.30
2018-12-14T05:32:54.587Z,102571.84
2018-12-14T05:35:22.177Z,102563.06
2018-12-14T05:37:49.733Z,102568.27
2018-12-14T05:40:17.557Z,102562.56
2018-12-14T05:42:45.304Z,102565.64
2018-12-14T05:45:12.860Z,102568.70
2018-12-14T05:47:40.618Z,102569.14
2018-12-14T05:50:08.415Z,102575.69
2018-12-14T05:52:36.041Z,102577.88
2018-12-14T05:55:04.254Z,102586.13
2018-12-14T05:57:31.852Z,102583.06
2018-12-14T05:59:59.427Z,102583.52
2018-12-14T06:02:27.533Z,102583.08
2018-12-14T06:04:55.241Z,102577.83
2018-12-14T06:10:23.465Z,102579.55
2018-12-14T06:12:52.251Z,102584.79
2018-12-14T06:15:20.734Z,102572.09
2018-12-14T06:17:49.199Z,102579.09
2018-12-14T06:20:16.814Z,102581.29
2018-12-14T06:22:44.447Z,102590.03
2018-12-14T06:25:12.063Z,102585.64
2018-12-14T06:27:39.699Z,102587.00
2018-12-14T06:30:07.483Z,102589.16
2018-12-14T06:32:35.584Z,102588.72
2018-12-14T06:35:03.404Z,102594.80
2018-12-14T06:37:31.340Z,102591.28
2018-12-14T06:39:59.009Z,102610.03
2018-12-14T06:42:26.680Z,102594.27
2018-12-14T06:44:54.751Z,102596.92
2018-12-14T06:47:22.893Z,102599.55
2018-12-14T06:49:50.531Z,102597.84
2018-12-14T06:52:18.161Z,102603.05
2018-12-14T06:54:45.776Z,102602.69
2018-12-14T06:57:13.346Z,102607.94
2018-12-14T06:59:41.439Z,102616.70
2018-12-14T07:02:09.983Z,102617.08
2018-12-14T07:04:37.764Z,102621.03
2018-12-14T07:07:05.400Z,102622.81
2018-12-14T07:09:33.663Z,102623.69
2018-12-14T07:12:01.300Z,102627.20
2018-12-14T07:14:28.889Z,102625.03
2018-12-14T07:16:56.465Z,102625.48
2018-12-14T07:19:24.102Z,102636.37
2018-12-14T07:21:51.740Z,102640.74
2018-12-14T07:24:19.335Z,102640.77
2018-12-14T07:26:47.248Z,102640.78
2018-12-14T07:29:14.821Z,102644.30
2018-12-14T07:31:42.419Z,102645.17
2018-12-14T07:34:10.005Z,102644.27
2018-12-14T07:36:37.527Z,102646.44
2018-12-14T07:39:06.399Z,102647.72
2018-12-14T07:41:34.166Z,102647.72
2018-12-14T07:44:01.835Z,102649.92
2018-12-14T07:46:29.372Z,102656.42
2018-12-14T07:48:56.943Z,102653.78
2018-12-14T07:51:25.066Z,102659.92
2018-12-14T07:53:52.874Z,102662.08
2018-12-14T07:56:20.467Z,102665.56
2018-12-14T07:58:48.442Z,102659.46
2018-12-14T08:01:16.252Z,102658.59
2018-12-14T08:03:43.885Z,102659.50
2018-12-14T08:06:11.567Z,102662.08
2018-12-14T08:08:39.113Z,102660.34
2018-12-14T08:11:06.706Z,102662.97
2018-12-14T08:13:34.937Z,102669.98
2018-12-14T08:16:02.586Z,102669.52
2018-12-14T08:18:30.153Z,102677.37
2018-12-14T08:20:57.749Z,102674.30
2018-12-14T08:23:25.349Z,102675.62
2018-12-14T08:25:52.911Z,102671.26
2018-12-14T08:28:20.479Z,102677.83
2018-12-14T08:30:48.191Z,102672.61
2018-12-14T08:33:15.899Z,102678.70
2018-12-14T08:35:43.549Z,102683.97
2018-12-14T08:38:11.156Z,102681.34
2018-12-14T08:40:38.690Z,102683.97
2018-12-14T08:43:06.268Z,102690.55
2018-12-14T08:45:33.857Z,102689.64
2018-12-14T08:48:01.853Z,102687.50
2018-12-14T08:50:29.445Z,102688.33
2018-12-14T08:52:57.014Z,102690.95
2018-12-14T08:55:24.923Z,102698.00
2018-12-14T08:57:52.573Z,102701.95
2018-12-14T09:00:20.215Z,102709.84
2018-12-14T09:02:47.830Z,102709.88
2018-12-14T09:05:15.473Z,102708.98
2018-12-14T09:07:43.098Z,102709.81
2018-12-14T09:10:10.716Z,102709.80
2018-12-14T09:12:38.267Z,102715.49
2018-12-14T09:15:05.887Z,102712.82
2018-12-14T09:17:33.529Z,102716.81
2018-12-14T09:20:01.570Z,102724.67
2018-12-14T09:22:29.155Z,102721.17
2018-12-14T09:24:56.764Z,102728.19
2018-12-14T09:27:24.418Z,102729.91
2018-12-14T09:29:51.982Z,102727.70
2018-12-14T09:32:19.595Z,102729.88
2018-12-14T09:34:47.253Z,102731.65
2018-12-14T09:37:14.881Z,102730.80
2018-12-14T09:39:42.509Z,102737.84
2018-12-14T09:42:10.113Z,102740.97
2018-12-14T09:44:37.654Z,102745.76
2018-12-14T09:47:05.230Z,102748.38
2018-12-14T09:49:32.838Z,102752.31
2018-12-14T09:52:00.435Z,102750.55
2018-12-14T09:54:28.133Z,102747.55
2018-12-14T09:56:55.697Z,102746.66
2018-12-14T09:59:23.271Z,102746.20
2018-12-14T10:01:50.860Z,102743.99
2018-12-14T10:04:18.440Z,102747.09
2018-12-14T10:06:46.086Z,102746.67
2018-12-14T10:09:13.648Z,102746.69
2018-12-14T10:11:41.228Z,102748.40
2018-12-14T10:14:08.871Z,102742.30
2018-12-14T10:16:36.439Z,102741.39
2018-12-14T10:19:04.398Z,102741.84
2018-12-14T10:21:31.956Z,102743.94
2018-12-14T10:23:59.542Z,102740.05
2018-12-14T10:26:27.153Z,102738.75
2018-12-14T10:28:54.699Z,102735.70
2018-12-14T10:31:22.287Z,102739.20
2018-12-14T10:33:49.838Z,102730.03
2018-12-14T10:36:17.794Z,102733.10
2018-12-14T10:38:45.308Z,102736.59
2018-12-14T10:41:12.892Z,102730.94
2018-12-14T10:43:40.475Z,102737.92
2018-12-14T10:46:08.056Z,102739.23
2018-12-14T10:48:35.873Z,102740.98
2018-12-14T10:51:03.423Z,102739.23
2018-12-14T10:53:30.988Z,102742.30
2018-12-14T10:55:58.597Z,102740.56
2018-12-14T10:58:26.489Z,102739.71
2018-12-14T11:00:59.543Z,102738.84
2018-12-14T11:03:27.263Z,102730.53
2018-12-14T11:05:54.846Z,102725.27
2018-12-14T11:08:22.436Z,102731.87
2018-12-14T11:10:50.035Z,102717.89
2018-12-14T11:13:17.591Z,102716.55
2018-12-14T11:15:45.135Z,102715.27
2018-12-14T11:18:12.735Z,102711.31
2018-12-14T11:20:40.266Z,102711.73
2018-12-14T11:23:07.971Z,102710.02
2018-12-14T11:25:35.567Z,102708.27
2018-12-14T11:28:03.147Z,102708.24
2018-12-14T11:30:30.767Z,102708.29
2018-12-14T11:32:58.331Z,102706.98
2018-12-14T11:35:25.923Z,102715.27
2018-12-14T11:37:53.493Z,102721.83
2018-12-14T11:40:21.116Z,102720.46
2018-12-14T11:42:48.698Z,102721.77
2018-12-14T11:45:16.294Z,102723.94
2018-12-14T11:47:43.865Z,102723.47
2018-12-14T11:50:11.804Z,102719.50
2018-12-14T11:52:39.495Z,102715.53
2018-12-14T11:55:08.818Z,102716.84
2018-12-14T11:57:36.732Z,102717.27
2018-12-14T12:00:06.516Z,102714.66
2018-12-14T12:02:34.066Z,102719.50
2018-12-14T12:05:01.643Z,102712.13
2018-12-14T12:07:29.236Z,102710.81
2018-12-14T12:09:56.830Z,102717.37
2018-12-14T12:12:24.706Z,102716.06
2018-12-14T12:14:52.403Z,102714.30
2018-12-14T12:17:20.107Z,102715.60
2018-12-14T12:19:47.734Z,102720.45
2018-12-14T12:22:15.351Z,102717.78
2018-12-14T12:24:42.890Z,102714.30
2018-12-14T12:27:10.435Z,102723.47
2018-12-14T12:29:38.166Z,102719.08
2018-12-14T12:32:05.738Z,102721.70
2018-12-14T12:34:33.312Z,102723.91
2018-12-14T12:37:00.886Z,102725.15
2018-12-14T12:39:28.496Z,102725.15
2018-12-14T12:41:56.082Z,102728.64
2018-12-14T12:44:23.776Z,102726.45
2018-12-14T12:46:51.372Z,102721.30
2018-12-14T12:49:18.956Z,102722.59
2018-12-14T12:51:46.603Z,102725.64
2018-12-14T12:54:14.169Z,102722.97
2018-12-14T12:56:41.797Z,102725.15
2018-12-14T12:59:09.386Z,102727.31
2018-12-14T13:01:37.015Z,102725.60
2018-12-14T13:04:04.687Z,102722.16
2018-12-14T13:06:32.307Z,102726.53
2018-12-14T13:08:59.951Z,102727.87
2018-12-14T13:11:27.580Z,102722.19
2018-12-14T13:13:55.140Z,102728.33
2018-12-14T13:16:22.686Z,102728.34
2018-12-14T13:18:50.319Z,102728.77
2018-12-14T13:21:17.917Z,102727.45
2018-12-14T13:23:45.552Z,102728.73
2018-12-14T13:26:13.130Z,102726.56
2018-12-14T13:28:40.839Z,102723.47
2018-12-14T13:31:08.385Z,102719.08
2018-12-14T13:33:36.058Z,102714.31
2018-12-14T13:36:03.691Z,102720.42
2018-12-14T13:38:31.224Z,102713.02
2018-12-14T13:40:58.824Z,102720.41
2018-12-14T13:43:26.422Z,102727.34
2018-12-14T13:45:54.036Z,102728.20
2018-12-14T13:48:21.655Z,102731.27
2018-12-14T13:50:49.398Z,102729.06
2018-12-14T13:53:16.965Z,102730.35
2018-12-14T13:55:44.503Z,102729.05
2018-12-14T13:58:12.237Z,102729.08
2018-12-14T14:00:39.812Z,102734.34
2018-12-14T14:03:07.373Z,102730.94
2018-12-14T14:05:34.944Z,102729.66
2018-12-14T14:08:02.544Z,102731.81
2018-12-14T14:10:30.061Z,102737.03
2018-12-14T14:12:57.675Z,102737.95
2018-12-14T14:15:25.216Z,102739.27
2018-12-14T14:17:52.786Z,102736.66
2018-12-14T14:20:20.428Z,102736.65
2018-12-14T14:22:48.217Z,102738.84
2018-12-14T14:25:17.571Z,102738.84
2018-12-14T14:27:45.447Z,102746.72
2018-12-14T14:30:13.027Z,102747.14
2018-12-14T14:32:40.678Z,102756.32
2018-12-14T14:35:08.436Z,102755.88
2018-12-14T14:37:35.973Z,102757.65
2018-12-14T14:40:03.651Z,102754.55
2018-12-14T14:42:31.209Z,102766.81
2018-12-14T14:44:59.922Z,102765.94
2018-12-14T14:47:27.688Z,102761.13
2018-12-14T14:49:55.218Z,102768.09
2018-12-14T14:52:22.766Z,102768.94
2018-12-14T14:54:50.656Z,102767.19
2018-12-14T14:57:18.277Z,102774.09
2018-12-14T14:59:45.852Z,102777.19
2018-12-14T15:02:13.429Z,102777.61
2018-12-14T15:04:40.956Z,102777.17
2018-12-14T15:07:08.704Z,102780.28
2018-12-14T15:09:36.288Z,102784.22
2018-12-14T15:12:03.819Z,102789.05
2018-12-14T15:14:31.436Z,102779.39
2018-12-14T15:16:59.040Z,102779.80
2018-12-14T15:19:26.637Z,102771.55
2018-12-14T15:21:54.208Z,102784.26
2018-12-14T15:24:21.732Z,102782.94
2018-12-14T15:26:49.324Z,102790.38
2018-12-14T15:29:16.903Z,102787.75
2018-12-14T15:31:45.162Z,102786.05
2018-12-14T15:34:14.416Z,102795.22
2018-12-14T15:36:42.318Z,102790.41
2018-12-14T15:39:09.894Z,102792.59
2018-12-14T15:41:37.448Z,102785.59
2018-12-14T15:44:05.009Z,102793.48
2018-12-14T15:46:32.628Z,102802.22
2018-12-14T15:49:00.203Z,102798.70
2018-12-14T15:51:27.923Z,102801.30
2018-12-14T15:53:55.491Z,102801.73
2018-12-14T15:56:23.066Z,102802.09
2018-12-14T15:58:50.636Z,102803.41
2018-12-14T16:01:18.212Z,102805.97
2018-12-14T16:03:45.832Z,102798.55
2018-12-14T16:06:13.355Z,102801.16
2018-12-14T16:08:40.915Z,102799.44
2018-12-14T16:11:08.463Z,102807.30
2018-12-14T16:13:36.002Z,102806.87
2018-12-14T16:16:03.639Z,102803.80
2018-12-14T16:18:31.393Z,102800.75
2018-12-14T16:20:58.983Z,102798.12
2018-12-14T16:23:26.540Z,102802.95
2018-12-14T16:25:54.092Z,102800.31
2018-12-14T16:28:21.663Z,102801.68
2018-12-14T16:30:49.231Z,102799.02
2018-12-14T16:33:16.847Z,102799.87
2018-12-14T16:35:44.433Z,102799.44
2018-12-14T16:38:12.000Z,102795.06
2018-12-14T16:40:39.603Z,102798.56
2018-12-14T16:43:07.233Z,102794.17
2018-12-14T16:45:34.769Z,102797.27
2018-12-14T16:48:02.297Z,102793.39
2018-12-14T16:50:29.909Z,102789.39
2018-12-14T16:52:57.503Z,102788.97
2018-12-14T16:55:25.089Z,102796.91
2018-12-14T16:57:52.944Z,102789.41
2018-12-14T17:00:20.487Z,102799.90
2018-12-14T17:02:48.049Z,102797.34
2018-12-14T17:05:15.764Z,102791.21
2018-12-14T17:07:43.515Z,102794.75
2018-12-14T17:10:11.104Z,102792.10
2018-12-14T17:12:38.728Z,102796.45
2018-12-14T17:15:06.828Z,102793.85
2018-12-14T17:17:34.419Z,102799.48
2018-12-14T17:20:01.974Z,102802.58
2018-12-14T17:22:29.657Z,102797.69
2018-12-14T17:24:57.285Z,102802.09
2018-12-14T17:27:24.811Z,102801.62
2018-12-14T17:29:52.381Z,102805.13
2018-12-14T17:32:19.931Z,102808.58
2018-12-14T17:34:47.641Z,102802.87
2018-12-14T17:37:15.248Z,102807.72
2018-12-14T17:39:42.814Z,102796.78
2018-12-14T17:42:10.405Z,102796.30
2018-12-14T17:44:37.942Z,102791.97
2018-12-14T17:47:05.643Z,102798.06
2018-12-14T17:49:33.228Z,102796.75
2018-12-14T17:52:00.852Z,102789.27
2018-12-14T17:54:28.444Z,102798.02
2018-12-14T17:57:02.838Z,102802.39
2018-12-14T17:59:30.398Z,102806.39
2018-12-14T18:01:57.964Z,102814.67
2018-12-14T18:04:25.557Z,102815.56
2018-12-14T18:06:53.156Z,102811.61
2018-12-14T18:09:20.771Z,102819.06
2018-12-14T18:11:48.361Z,102818.16
2018-12-14T18:14:15.904Z,102821.67
2018-12-14T18:16:43.482Z,102818.20
2018-12-14T18:19:11.529Z,102826.53
2018-12-14T18:21:39.169Z,102832.22
2018-12-14T18:24:06.723Z,102827.41
2018-12-14T18:26:34.333Z,102832.26
2018-12-14T18:29:01.901Z,102833.09
2018-12-14T18:31:29.493Z,102828.28
2018-12-14T18:33:57.076Z,102826.93
2018-12-14T18:36:24.653Z,102826.08
2018-12-14T18:38:52.390Z,102833.09
2018-12-14T18:41:19.984Z,102837.02
2018-12-14T18:43:47.584Z,102835.28
2018-12-14T18:46:15.180Z,102836.11
2018-12-14T18:48:42.744Z,102838.31
2018-12-14T18:51:10.470Z,102837.84
2018-12-14T18:53:38.204Z,102840.03
2018-12-14T18:56:06.007Z,102836.52
2018-12-14T18:58:33.782Z,102842.66
2018-12-14T19:01:01.413Z,102844.84
2018-12-14T19:03:28.996Z,102847.03
2018-12-14T19:05:56.604Z,102849.21
2018-12-14T19:08:24.319Z,102856.19
2018-12-14T19:10:51.902Z,102854.45
2018-12-14T19:13:19.491Z,102853.54
2018-12-14T19:15:47.091Z,102854.81
2018-12-14T19:18:14.710Z,102853.05
2018-12-14T19:20:42.352Z,102853.92
2018-12-14T19:23:09.871Z,102856.55
2018-12-14T19:25:37.481Z,102860.92
2018-12-14T19:28:05.184Z,102864.86
2018-12-14T19:30:32.745Z,102868.78
2018-12-14T19:33:00.311Z,102869.27
2018-12-14T19:35:28.026Z,102873.64
2018-12-14T19:37:55.552Z,102862.72
2018-12-14T19:40:23.123Z,102866.65
2018-12-14T19:42:50.806Z,102871.89
2018-12-14T19:45:18.375Z,102872.33
2018-12-14T19:47:45.996Z,102874.08
2018-12-14T19:50:13.663Z,102873.64
2018-12-14T19:52:41.204Z,102867.09
2018-12-14T19:55:08.766Z,102867.98
2018-12-14T19:57:36.445Z,102874.56
2018-12-14T20:00:05.548Z,102869.75
2018-12-14T20:02:33.166Z,102877.18
2018-12-14T20:05:00.740Z,102880.20
2018-12-14T20:07:28.288Z,102881.51
2018-12-14T20:09:55.960Z,102879.31
2018-12-14T20:12:23.577Z,102885.89
2018-12-14T20:14:51.132Z,102883.72
2018-12-14T20:17:18.709Z,102883.69
2018-12-14T20:19:46.297Z,102890.22
2018-12-14T20:22:13.863Z,102883.66
2018-12-14T20:24:41.487Z,102889.31
2018-12-14T20:27:09.054Z,102885.39
2018-12-14T20:29:36.735Z,102889.31
2018-12-14T20:32:04.284Z,102894.95
2018-12-14T20:34:31.817Z,102897.56
2018-12-14T20:36:59.409Z,102899.27
2018-12-14T20:39:26.931Z,102899.72
2018-12-14T20:41:54.520Z,102901.02
2018-12-14T20:44:22.229Z,102899.72
2018-12-14T20:46:49.751Z,102903.63
2018-12-14T20:49:17.302Z,102906.70
2018-12-14T20:51:44.893Z,102910.16
2018-12-14T20:54:12.499Z,102905.72
2018-12-14T20:56:40.077Z,102907.05
2018-12-14T20:59:07.684Z,102903.09
2018-12-14T21:01:35.230Z,102902.27
2018-12-14T21:04:02.817Z,102907.05
2018-12-14T21:06:30.404Z,102908.34
2018-12-14T21:08:57.988Z,102907.95
2018-12-14T21:11:25.776Z,102908.80
2018-12-14T21:13:53.287Z,102901.78
2018-12-14T21:16:25.925Z,102901.81
2018-12-14T21:18:50.477Z,102904.89
2018-12-14T21:21:18.018Z,102903.12
2018-12-14T21:23:45.607Z,102904.45
2018-12-14T21:26:13.211Z,102909.70
2018-12-14T21:28:40.775Z,102908.39
2018-12-14T21:31:08.346Z,102910.56
2018-12-14T21:33:35.902Z,102906.61
2018-12-14T21:36:03.479Z,102910.56
2018-12-14T21:38:31.191Z,102910.09
2018-12-14T21:40:58.750Z,102909.20
2018-12-14T21:43:26.325Z,102900.50
2018-12-14T21:45:53.882Z,102898.31
2018-12-14T21:48:21.531Z,102898.31
2018-12-14T21:50:49.094Z,102900.46
2018-12-14T21:53:16.806Z,102897.34
2018-12-14T21:55:44.440Z,102899.10
2018-12-14T21:58:12.049Z,102899.12
2018-12-14T22:00:39.596Z,102893.86
2018-12-14T22:03:07.180Z,102895.56
2018-12-14T22:05:34.924Z,102893.42
2018-12-14T22:08:02.490Z,102898.19
2018-12-14T22:10:30.061Z,102901.67
2018-12-14T22:12:57.636Z,102891.64
2018-12-14T22:15:25.240Z,102891.19
2018-12-14T22:17:52.820Z,102891.64
2018-12-14T22:20:20.502Z,102893.38
2018-12-14T22:22:48.083Z,102891.17
2018-12-14T22:25:15.649Z,102893.84
2018-12-14T22:27:43.358Z,102892.55
2018-12-14T22:30:11.117Z,102894.73
2018-12-14T22:32:38.857Z,102892.95
2018-12-14T22:35:06.628Z,102888.63
2018-12-14T22:37:34.334Z,102891.23
2018-12-14T22:40:02.065Z,102891.64
2018-12-14T22:42:29.776Z,102893.38
2018-12-14T22:44:57.466Z,102895.17
2018-12-14T22:47:25.212Z,102895.14
2018-12-14T22:49:52.968Z,102895.13
2018-12-14T22:52:20.729Z,102895.08
2018-12-14T22:54:48.461Z,102894.23
2018-12-14T22:57:16.187Z,102890.31
2018-12-14T22:59:43.974Z,102899.92
2018-12-14T23:02:12.450Z,102895.55
2018-12-14T23:04:40.137Z,102899.00
2018-12-14T23:07:07.846Z,102901.65
2018-12-14T23:09:35.717Z,102902.55
2018-12-14T23:12:03.433Z,102896.38
2018-12-14T23:14:31.184Z,102898.14
2018-12-14T23:16:58.906Z,102896.81
2018-12-14T23:19:26.611Z,102899.36
2018-12-14T23:21:54.484Z,102897.63
2018-12-14T23:24:22.200Z,102900.69
2018-12-14T23:26:49.755Z,102897.63
2018-12-14T23:29:17.415Z,102898.09
2018-12-14T23:31:45.108Z,102898.52
2018-12-14T23:34:12.640Z,102896.32
2018-12-14T23:36:40.228Z,102896.77
2018-12-14T23:39:07.878Z,102895.45
2018-12-14T23:41:35.455Z,102890.19
2018-12-14T23:44:03.225Z,102898.08
2018-12-14T23:46:30.834Z,102892.39
2018-12-14T23:48:58.363Z,102893.23
2018-12-14T23:51:25.928Z,102891.50
2018-12-14T23:53:53.470Z,102897.23
2018-12-14T23:56:21.065Z,102896.78
2018-12-14T23:58:48.668Z,102900.69
